Time;durP1;ratioP1;P1;durP2;ratioP2;P2;SDS_P1;SDS_P2;PMS_P1;PMS_P2;Temp;Humidity;BMP_temperature;BMP_pressure;BME280_temperature;BME280_humidity;BME280_pressure;Samples;Min_cycle;Max_cycle;Signal;HPM_P1;HPM_P2
2021/03/03 00:02:23;;;;;;;7.90;5.17;;;13.30;99.90;;;;;;5076601;28;20463;-44
2021/03/03 00:04:54;;;;;;;7.93;6.13;;;13.30;99.90;;;;;;5064084;28;20916;-42
2021/03/03 00:07:24;;;;;;;8.77;5.20;;;13.20;99.90;;;;;;5062889;28;20448;-47
2021/03/03 00:09:54;;;;;;;6.00;5.40;;;13.10;99.90;;;;;;5071981;28;20815;-45
2021/03/03 00:12:24;;;;;;;8.30;5.70;;;13.10;99.90;;;;;;5065320;28;20437;-42
2021/03/03 00:14:54;;;;;;;7.57;5.27;;;13.00;99.90;;;;;;5062143;28;20459;-42
2021/03/03 00:17:25;;;;;;;10.93;5.20;;;13.00;99.90;;;;;;5073826;28;20549;-43
2021/03/03 00:19:55;;;;;;;8.10;6.37;;;13.20;99.90;;;;;;5062089;28;20462;-48
2021/03/03 00:22:25;;;;;;;8.53;5.00;;;13.10;99.90;;;;;;5062392;28;20448;-41
2021/03/03 00:24:55;;;;;;;5.17;4.10;;;13.00;99.90;;;;;;5065040;28;20456;-42
2021/03/03 00:27:25;;;;;;;6.97;5.20;;;12.80;99.90;;;;;;5063161;28;20467;-44
2021/03/03 00:30:15;;;;;;;6.20;4.60;;;12.80;99.90;;;;;;5063300;28;20454;-44
2021/03/03 00:32:47;;;;;;;9.33;5.00;;;12.80;99.90;;;;;;5064011;28;20489;-44
2021/03/03 00:35:17;;;;;;;6.70;4.53;;;12.90;99.90;;;;;;5081228;28;20458;-41
2021/03/03 00:37:47;;;;;;;6.90;4.50;;;12.80;99.90;;;;;;5062610;28;20452;-46
2021/03/03 00:40:18;;;;;;;4.60;4.20;;;12.80;99.90;;;;;;5064877;28;20455;-45
2021/03/03 00:42:48;;;;;;;8.37;4.73;;;12.80;99.90;;;;;;5062903;28;20452;-43
2021/03/03 00:45:18;;;;;;;6.07;3.60;;;12.70;99.90;;;;;;5067207;28;20502;-42
2021/03/03 00:47:49;;;;;;;5.00;4.10;;;12.50;99.90;;;;;;5063529;28;20487;-41
2021/03/03 00:50:19;;;;;;;6.47;4.07;;;12.50;99.90;;;;;;5079179;28;20447;-42
2021/03/03 00:52:49;;;;;;;4.37;3.97;;;12.40;99.90;;;;;;5082121;28;20455;-47
2021/03/03 00:55:19;;;;;;;5.70;4.57;;;12.30;99.90;;;;;;5080928;28;20470;-43
2021/03/03 00:57:49;;;;;;;8.10;4.90;;;12.40;99.90;;;;;;5073833;28;20490;-42
2021/03/03 01:00:35;;;;;;;7.40;5.07;;;12.30;99.90;;;;;;5073645;28;20458;-43
2021/03/03 01:03:07;;;;;;;4.50;4.00;;;12.30;99.90;;;;;;5073397;28;20460;-45
2021/03/03 01:05:39;;;;;;;7.70;5.03;;;12.20;99.90;;;;;;5075441;28;20457;-41
2021/03/03 01:08:10;;;;;;;5.83;3.60;;;12.10;99.90;;;;;;5076889;28;20483;-43
2021/03/03 01:10:40;;;;;;;4.87;3.87;;;12.10;99.90;;;;;;5065174;28;20995;-41
2021/03/03 01:13:11;;;;;;;5.77;4.40;;;12.00;99.90;;;;;;5065924;28;20448;-43
2021/03/03 01:15:42;;;;;;;7.80;4.17;;;12.00;99.90;;;;;;5075833;28;20442;-41
2021/03/03 01:18:13;;;;;;;5.50;3.83;;;11.80;99.90;;;;;;5078531;28;20886;-41
2021/03/03 01:20:44;;;;;;;4.97;3.70;;;11.70;99.90;;;;;;5077686;28;20482;-40
2021/03/03 01:23:15;;;;;;;5.60;3.73;;;11.70;99.90;;;;;;5085171;28;20461;-40
2021/03/03 01:25:45;;;;;;;5.80;4.20;;;11.60;99.90;;;;;;5074710;28;20512;-38
2021/03/03 01:28:15;;;;;;;5.17;4.03;;;11.70;99.90;;;;;;5072323;28;20968;-41
2021/03/03 01:30:57;;;;;;;5.57;4.40;;;11.60;99.90;;;;;;5077574;28;20442;-39
2021/03/03 01:33:30;;;;;;;5.67;4.30;;;11.60;99.90;;;;;;5083961;28;20458;-41
2021/03/03 01:36:01;;;;;;;7.33;4.77;;;11.60;99.90;;;;;;5067272;28;20463;-40
2021/03/03 01:38:31;;;;;;;5.37;4.87;;;11.50;99.90;;;;;;5084786;28;20455;-39
2021/03/03 01:41:01;;;;;;;9.23;5.50;;;11.60;99.90;;;;;;5063961;28;20455;-40
2021/03/03 01:43:33;;;;;;;6.07;4.47;;;11.40;99.90;;;;;;5064895;28;20470;-43
2021/03/03 01:46:03;;;;;;;7.67;5.40;;;11.30;99.90;;;;;;5078909;28;20446;-42
2021/03/03 01:48:34;;;;;;;6.60;5.53;;;11.20;99.90;;;;;;5085268;28;20538;-44
2021/03/03 01:51:04;;;;;;;10.10;8.47;;;11.10;99.90;;;;;;5082646;28;20545;-42
2021/03/03 01:53:35;;;;;;;13.10;7.60;;;11.00;99.90;;;;;;5078270;28;20458;-42
2021/03/03 01:56:05;;;;;;;11.93;10.33;;;10.90;99.90;;;;;;5079613;28;20559;-43
2021/03/03 01:58:35;;;;;;;24.43;18.63;;;10.80;99.90;;;;;;5065481;28;20490;-41
2021/03/03 02:01:18;;;;;;;21.50;16.00;;;10.70;99.90;;;;;;5071336;28;20923;-40
2021/03/03 02:03:49;;;;;;;19.73;12.37;;;10.60;99.90;;;;;;5074014;28;20462;-42
2021/03/03 02:06:26;;;;;;;13.10;9.10;;;10.50;99.90;;;;;;5075259;28;20465;-41
2021/03/03 02:09:02;;;;;;;11.77;6.17;;;10.40;99.90;;;;;;5075655;28;20486;-42
2021/03/03 02:11:41;;;;;;;8.97;6.17;;;10.30;99.90;;;;;;5074853;28;20459;-40
2021/03/03 02:14:17;;;;;;;11.27;5.38;;;10.20;99.90;;;;;;5074083;28;20441;-40
2021/03/03 02:16:49;;;;;;;7.77;5.27;;;10.10;99.90;;;;;;5070764;28;20234;-41
2021/03/03 02:19:24;;;;;;;9.93;5.43;;;10.00;99.90;;;;;;5074319;28;20446;-42
2021/03/03 02:22:03;;;;;;;8.13;5.83;;;10.00;99.90;;;;;;5069272;28;20257;-43
2021/03/03 02:24:42;;;;;;;8.93;5.43;;;9.90;99.90;;;;;;5071142;28;20458;-43
2021/03/03 02:27:13;;;;;;;8.60;6.10;;;9.80;99.90;;;;;;5083044;28;20979;-42
2021/03/03 02:29:44;;;;;;;16.45;11.30;;;9.70;99.90;;;;;;5070534;28;20486;-41
2021/03/03 02:32:17;;;;;;;18.93;13.20;;;9.60;99.90;;;;;;5078422;28;20289;-40
2021/03/03 02:34:48;;;;;;;13.30;10.70;;;9.60;99.90;;;;;;5067146;28;20497;-42
2021/03/03 02:37:20;;;;;;;13.93;10.90;;;9.60;99.90;;;;;;5064979;28;20216;-40
2021/03/03 02:39:51;;;;;;;12.57;10.97;;;9.50;99.90;;;;;;5064270;28;20459;-40
2021/03/03 02:42:23;;;;;;;15.10;10.15;;;9.40;99.90;;;;;;5068021;28;20449;-40
2021/03/03 02:44:54;;;;;;;12.00;8.60;;;9.40;99.90;;;;;;5078894;28;20327;-41
2021/03/03 02:47:24;;;;;;;12.63;8.90;;;9.40;99.90;;;;;;5084139;28;20460;-40
2021/03/03 02:49:55;;;;;;;9.90;8.20;;;9.30;99.90;;;;;;5062923;28;20580;-40
2021/03/03 02:52:27;;;;;;;14.25;9.82;;;9.30;99.90;;;;;;5064764;28;20523;-40
2021/03/03 02:54:57;;;;;;;16.33;9.73;;;9.20;99.90;;;;;;5080605;28;20212;-40
2021/03/03 02:57:28;;;;;;;10.02;9.05;;;9.20;99.90;;;;;;5069377;28;20463;-41
2021/03/03 02:59:58;;;;;;;12.17;9.73;;;9.20;99.90;;;;;;5067143;28;20215;-41
2021/03/03 03:02:30;;;;;;;10.85;9.75;;;9.10;99.90;;;;;;5068773;28;20454;-41
2021/03/03 03:05:03;;;;;;;10.02;8.80;;;9.00;99.90;;;;;;5071568;28;20719;-40
2021/03/03 03:07:37;;;;;;;11.63;9.70;;;9.00;99.90;;;;;;5069031;28;20187;-40
2021/03/03 03:10:11;;;;;;;14.32;11.85;;;8.90;99.90;;;;;;5079052;28;20350;-40
2021/03/03 03:12:45;;;;;;;12.25;10.02;;;8.90;99.90;;;;;;5066125;28;20252;-40
2021/03/03 03:15:18;;;;;;;14.32;11.50;;;8.80;99.90;;;;;;5069522;28;20202;-40
2021/03/03 03:20:42;;;;;;;15.75;12.40;;;8.80;99.90;;;;;;5079345;28;20212;-41
2021/03/03 03:23:14;;;;;;;14.48;12.52;;;8.70;99.90;;;;;;5071418;28;20653;-41
2021/03/03 03:25:47;;;;;;;19.05;14.00;;;8.60;99.90;;;;;;5079815;28;20214;-41
2021/03/03 03:28:19;;;;;;;18.58;15.18;;;8.60;99.90;;;;;;5066213;28;20475;-41
2021/03/03 03:30:50;;;;;;;16.08;13.68;;;8.50;99.90;;;;;;5070125;28;20218;-40
2021/03/03 03:33:22;;;;;;;16.35;14.75;;;8.40;99.90;;;;;;5077372;28;20205;-40
2021/03/03 03:35:52;;;;;;;18.65;14.63;;;8.40;99.90;;;;;;5064227;28;20255;-41
2021/03/03 03:38:22;;;;;;;16.92;15.07;;;8.30;99.90;;;;;;5063665;28;20256;-41
2021/03/03 03:40:52;;;;;;;20.83;15.82;;;8.30;99.90;;;;;;5071680;28;21039;-40
2021/03/03 03:43:24;;;;;;;19.42;17.30;;;8.20;99.90;;;;;;5068149;28;20221;-39
2021/03/03 03:45:55;;;;;;;22.48;19.13;;;8.30;99.90;;;;;;5062578;28;20263;-39
2021/03/03 03:48:26;;;;;;;20.50;18.30;;;8.20;99.90;;;;;;5075184;28;20240;-39
2021/03/03 03:50:56;;;;;;;21.95;19.60;;;8.10;99.90;;;;;;5068925;28;20202;-41
2021/03/03 03:53:26;;;;;;;22.80;19.13;;;8.00;99.90;;;;;;5067879;28;20243;-41
2021/03/03 03:55:56;;;;;;;23.70;20.13;;;8.00;99.90;;;;;;5070182;28;20202;-44
2021/03/03 03:58:27;;;;;;;20.42;18.30;;;8.00;99.90;;;;;;5074411;28;20202;-43
2021/03/03 04:00:58;;;;;;;20.58;18.38;;;7.90;99.90;;;;;;5080799;28;20285;-40
2021/03/03 04:03:28;;;;;;;22.48;18.25;;;7.80;99.90;;;;;;5076041;28;20224;-43
2021/03/03 04:05:58;;;;;;;24.38;19.42;;;7.80;99.90;;;;;;5066076;28;20201;-43
2021/03/03 04:08:28;;;;;;;20.40;18.20;;;7.80;99.90;;;;;;5074105;28;20243;-47
2021/03/03 04:10:58;;;;;;;20.50;18.45;;;7.70;99.90;;;;;;5066797;28;20201;-49
2021/03/03 04:13:29;;;;;;;23.42;19.10;;;7.70;99.90;;;;;;5071163;28;20627;-42
2021/03/03 04:16:01;;;;;;;24.70;20.60;;;7.60;99.90;;;;;;5078751;28;20233;-44
2021/03/03 04:18:31;;;;;;;25.50;20.20;;;7.70;99.90;;;;;;5071981;28;20218;-45
2021/03/03 04:21:01;;;;;;;22.30;18.30;;;7.80;99.90;;;;;;5082402;28;20224;-42
2021/03/03 04:23:31;;;;;;;26.95;20.38;;;7.80;99.90;;;;;;5077299;28;20197;-42
2021/03/03 04:26:01;;;;;;;24.15;20.00;;;7.70;99.90;;;;;;5074227;28;20205;-41
2021/03/03 04:28:32;;;;;;;20.92;18.30;;;7.60;99.90;;;;;;5070877;28;20706;-41
2021/03/03 04:31:02;;;;;;;23.13;18.83;;;7.50;99.90;;;;;;5068786;28;20251;-42
2021/03/03 04:33:34;;;;;;;23.08;20.02;;;7.50;99.90;;;;;;5077243;28;20239;-42
2021/03/03 04:36:04;;;;;;;20.10;18.05;;;7.50;99.90;;;;;;5066735;28;20194;-42
2021/03/03 04:38:34;;;;;;;23.00;19.45;;;7.40;99.90;;;;;;5067189;28;20293;-43
2021/03/03 04:41:04;;;;;;;18.70;16.50;;;7.40;99.90;;;;;;5073955;28;20255;-42
2021/03/03 04:43:36;;;;;;;20.10;16.10;;;7.30;99.90;;;;;;5072334;28;20206;-40
2021/03/03 04:46:06;;;;;;;22.58;17.52;;;7.30;99.90;;;;;;5072766;28;20274;-43
2021/03/03 04:48:36;;;;;;;21.83;16.60;;;7.30;99.90;;;;;;5075616;28;20221;-41
2021/03/03 04:51:06;;;;;;;17.52;15.57;;;7.20;99.90;;;;;;5072621;28;20264;-40
2021/03/03 04:53:37;;;;;;;19.70;16.67;;;7.20;99.90;;;;;;5068748;28;20205;-40
2021/03/03 04:56:08;;;;;;;21.70;16.75;;;7.10;99.90;;;;;;5076601;28;20204;-43
2021/03/03 04:58:39;;;;;;;19.85;16.25;;;7.10;99.90;;;;;;5079109;28;20312;-41
2021/03/03 05:01:09;;;;;;;18.98;16.88;;;7.00;99.90;;;;;;5085162;28;20212;-43
2021/03/03 05:03:40;;;;;;;18.70;15.25;;;7.00;99.90;;;;;;5080673;28;20237;-43
2021/03/03 05:06:11;;;;;;;21.27;17.58;;;7.00;99.90;;;;;;5077753;28;20204;-40
2021/03/03 05:08:41;;;;;;;25.58;16.25;;;7.00;99.90;;;;;;5085114;28;20236;-40
2021/03/03 05:11:11;;;;;;;16.45;14.75;;;6.90;99.90;;;;;;5074310;28;20251;-41
2021/03/03 05:13:42;;;;;;;23.35;15.65;;;6.90;99.90;;;;;;5081849;28;20286;-42
2021/03/03 05:16:13;;;;;;;20.65;16.05;;;6.90;99.90;;;;;;5065613;28;20287;-40
2021/03/03 05:18:43;;;;;;;22.27;16.48;;;6.90;99.90;;;;;;5076038;28;20194;-42
2021/03/03 05:21:14;;;;;;;17.42;15.45;;;6.80;99.90;;;;;;5080821;28;20240;-41
2021/03/03 05:23:44;;;;;;;21.58;15.25;;;6.70;99.90;;;;;;5070374;28;20244;-40
2021/03/03 05:26:14;;;;;;;16.98;15.00;;;6.70;99.90;;;;;;5076385;28;20201;-40
2021/03/03 05:28:47;;;;;;;19.20;15.73;;;6.60;99.90;;;;;;5082215;28;20233;-40
2021/03/03 05:31:17;;;;;;;18.70;16.73;;;6.50;99.90;;;;;;5081225;28;20220;-41
2021/03/03 05:34:00;;;;;;;21.77;17.27;;;6.50;99.90;;;;;;5079540;28;20246;-42
2021/03/03 05:36:30;;;;;;;19.08;16.38;;;6.50;99.90;;;;;;5082488;28;20209;-41
2021/03/03 05:39:00;;;;;;;19.40;17.45;;;6.50;99.90;;;;;;5079284;28;20235;-39
2021/03/03 05:41:30;;;;;;;21.88;17.92;;;6.50;99.90;;;;;;5072962;28;20198;-39
2021/03/03 05:44:02;;;;;;;23.55;17.85;;;6.40;99.90;;;;;;5075564;28;20255;-39
2021/03/03 05:46:32;;;;;;;21.42;18.63;;;6.30;99.90;;;;;;5070873;28;20263;-39
2021/03/03 05:49:06;;;;;;;23.35;17.45;;;6.20;99.90;;;;;;5084571;28;20232;-38
2021/03/03 05:51:38;;;;;;;20.52;18.02;;;6.30;99.90;;;;;;5085668;28;20606;-40
2021/03/03 05:54:09;;;;;;;18.50;16.50;;;6.10;99.90;;;;;;5077909;28;20948;-40
2021/03/03 05:56:39;;;;;;;17.70;15.80;;;6.10;99.90;;;;;;5082083;28;20611;-39
2021/03/03 05:59:12;;;;;;;18.80;16.83;;;6.10;99.90;;;;;;5080906;28;20214;-40
2021/03/03 06:01:44;;;;;;;21.80;16.10;;;6.00;99.90;;;;;;5062522;28;20206;-38
2021/03/03 06:04:23;;;;;;;24.83;18.33;;;6.10;99.90;;;;;;5073020;28;20198;-38
2021/03/03 06:06:53;;;;;;;20.27;18.13;;;6.10;99.90;;;;;;5078154;28;20246;-38
2021/03/03 06:09:23;;;;;;;19.38;17.08;;;6.00;99.90;;;;;;5080976;28;20287;-38
2021/03/03 06:11:56;;;;;;;21.38;19.17;;;6.00;99.90;;;;;;5080219;28;20243;-38
2021/03/03 06:14:27;;;;;;;22.98;17.20;;;5.90;99.90;;;;;;5081190;28;20209;-38
2021/03/03 06:17:16;;;;;;;24.15;19.15;;;5.90;99.90;;;;;;5084524;28;20229;-38
2021/03/03 06:19:47;;;;;;;27.27;19.05;;;5.90;99.90;;;;;;5077012;28;20206;-38
2021/03/03 06:22:25;;;;;;;22.33;17.05;;;5.90;99.90;;;;;;5078657;28;20197;-39
2021/03/03 06:24:56;;;;;;;20.55;16.02;;;5.90;99.90;;;;;;5084830;28;20590;-39
2021/03/03 06:27:37;;;;;;;23.05;18.25;;;5.90;99.90;;;;;;5074158;28;20209;-38
2021/03/03 06:30:11;;;;;;;25.58;16.85;;;6.00;99.90;;;;;;5080158;28;20240;-39
2021/03/03 06:32:55;;;;;;;25.67;16.05;;;6.00;99.90;;;;;;5080585;28;20227;-39
2021/03/03 06:35:36;;;;;;;18.40;16.13;;;5.90;99.90;;;;;;5077214;28;20205;-38
2021/03/03 06:38:07;;;;;;;25.77;18.25;;;5.90;99.90;;;;;;5076342;28;20205;-39
2021/03/03 06:40:50;;;;;;;20.67;18.50;;;5.90;99.90;;;;;;5084596;28;20701;-38
2021/03/03 06:43:22;;;;;;;23.83;20.73;;;5.80;99.90;;;;;;5081247;28;20193;-39
2021/03/03 06:45:54;;;;;;;24.48;17.92;;;5.80;99.90;;;;;;5074134;28;20197;-39
2021/03/03 06:48:38;;;;;;;20.13;17.98;;;5.80;99.90;;;;;;5083151;28;20209;-40
2021/03/03 06:51:26;;;;;;;20.45;17.73;;;5.80;99.90;;;;;;5083063;28;20256;-39
2021/03/03 06:53:57;;;;;;;23.15;17.48;;;5.80;99.90;;;;;;5083657;28;20258;-39
2021/03/03 06:56:38;;;;;;;20.92;17.52;;;5.70;99.90;;;;;;5083210;28;20216;-40
2021/03/03 06:59:16;;;;;;;24.13;17.65;;;5.70;99.90;;;;;;5083472;28;20266;-39
2021/03/03 07:01:48;;;;;;;25.92;21.70;;;5.60;99.90;;;;;;5072183;28;20189;-39
2021/03/03 07:04:30;;;;;;;25.98;23.20;;;5.50;99.90;;;;;;5084466;28;20212;-39
2021/03/03 07:07:02;;;;;;;26.83;23.38;;;5.50;99.90;;;;;;5082567;28;20251;-39
2021/03/03 07:09:43;;;;;;;21.45;19.20;;;5.50;99.90;;;;;;5080449;28;20233;-39
2021/03/03 07:12:14;;;;;;;22.00;17.73;;;5.40;99.90;;;;;;5084036;28;20205;-38
2021/03/03 07:14:46;;;;;;;26.52;22.85;;;5.30;99.90;;;;;;5081715;28;20209;-38
2021/03/03 07:17:19;;;;;;;27.48;23.10;;;5.40;99.90;;;;;;5068506;28;20233;-38
2021/03/03 07:19:50;;;;;;;25.52;21.33;;;5.40;99.90;;;;;;5079782;28;20261;-38
2021/03/03 07:22:38;;;;;;;26.45;22.75;;;5.40;99.90;;;;;;5083811;28;20670;-39
2021/03/03 07:25:11;;;;;;;25.35;22.60;;;5.40;99.90;;;;;;5072725;28;20205;-40
2021/03/03 07:27:43;;;;;;;24.00;19.77;;;5.30;99.90;;;;;;5083744;28;20205;-40
2021/03/03 07:30:14;;;;;;;22.35;19.30;;;5.20;99.90;;;;;;5082168;28;20255;-38
2021/03/03 07:32:46;;;;;;;23.20;15.23;;;5.10;99.90;;;;;;5083816;28;20201;-38
2021/03/03 07:35:32;;;;;;;21.80;16.70;;;5.10;99.90;;;;;;5069560;28;20265;-38
2021/03/03 07:38:04;;;;;;;23.17;15.60;;;5.00;99.90;;;;;;5081122;28;20205;-38
2021/03/03 07:40:34;;;;;;;19.90;17.45;;;5.10;99.90;;;;;;5074724;28;20281;-38
2021/03/03 07:43:05;;;;;;;16.52;14.73;;;5.20;99.90;;;;;;5082771;28;20231;-37
2021/03/03 07:45:37;;;;;;;16.92;15.13;;;5.10;99.90;;;;;;5081530;28;20201;-38
2021/03/03 07:48:11;;;;;;;17.98;14.25;;;5.10;99.90;;;;;;5078113;28;20213;-38
2021/03/03 07:50:42;;;;;;;16.30;11.48;;;5.20;99.90;;;;;;5079395;28;20217;-38
2021/03/03 07:53:14;;;;;;;13.82;10.57;;;5.30;99.90;;;;;;5067885;28;20197;-38
2021/03/03 07:55:44;;;;;;;13.88;10.90;;;5.40;99.90;;;;;;5070747;28;20197;-38
2021/03/03 07:58:15;;;;;;;13.95;12.15;;;5.50;99.90;;;;;;5079960;28;20227;-39
2021/03/03 08:00:45;;;;;;;15.23;11.25;;;5.50;99.90;;;;;;5075391;28;20221;-38
2021/03/03 08:03:37;;;;;;;17.10;11.77;;;5.50;99.90;;;;;;5070491;28;20208;-39
2021/03/03 08:06:25;;;;;;;16.27;10.23;;;5.50;99.90;;;;;;5082808;28;20208;-38
2021/03/03 08:09:15;;;;;;;14.02;11.73;;;5.50;99.90;;;;;;5078570;28;20248;-39
2021/03/03 08:12:01;;;;;;;14.38;10.77;;;5.50;99.90;;;;;;5083415;28;20203;-39
2021/03/03 08:14:40;;;;;;;18.23;10.48;;;5.40;99.90;;;;;;5082497;28;20274;-39
2021/03/03 08:17:12;;;;;;;12.15;9.90;;;5.30;99.90;;;;;;5075092;28;20224;-39
2021/03/03 08:20:00;;;;;;;12.73;9.73;;;5.10;99.90;;;;;;5076379;28;20515;-39
2021/03/03 08:22:54;;;;;;;15.23;11.02;;;5.10;99.90;;;;;;5072678;28;20224;-39
2021/03/03 08:25:47;;;;;;;13.55;10.70;;;5.10;99.90;;;;;;5074318;28;20208;-39
2021/03/03 08:28:31;;;;;;;20.73;11.30;;;5.10;99.90;;;;;;5075539;28;20276;-39
2021/03/03 08:31:32;;;;;;;16.45;10.18;;;5.10;99.90;;;;;;5080494;28;20216;-38
2021/03/03 08:34:07;;;;;;;16.35;12.05;;;5.20;99.90;;;;;;5083137;28;20234;-38
2021/03/03 08:37:02;;;;;;;15.43;10.88;;;5.20;99.90;;;;;;5078003;28;20201;-38
2021/03/03 08:39:40;;;;;;;13.23;9.75;;;5.10;99.90;;;;;;5068702;28;20251;-36
2021/03/03 08:42:33;;;;;;;13.30;10.27;;;5.00;99.90;;;;;;5083637;28;20216;-38
2021/03/03 08:45:13;;;;;;;15.65;10.82;;;4.90;99.90;;;;;;5081323;28;20208;-38
2021/03/03 08:48:01;;;;;;;15.50;10.90;;;4.90;99.90;;;;;;5075896;28;20297;-38
2021/03/03 08:50:45;;;;;;;16.05;11.18;;;4.90;99.90;;;;;;5074650;28;20788;-39
2021/03/03 08:53:29;;;;;;;13.15;10.27;;;4.80;99.90;;;;;;5081640;28;20299;-39
2021/03/03 08:56:01;;;;;;;12.50;10.15;;;4.80;99.90;;;;;;5073375;28;20206;-39
2021/03/03 08:59:04;;;;;;;12.45;9.75;;;4.70;99.90;;;;;;5077589;28;20746;-38
2021/03/03 09:01:54;;;;;;;14.02;9.57;;;4.70;99.90;;;;;;5077696;28;20227;-39
2021/03/03 09:04:28;;;;;;;14.70;10.20;;;4.70;99.90;;;;;;5074248;28;20248;-39
2021/03/03 09:07:00;;;;;;;16.40;9.70;;;4.60;99.90;;;;;;5080522;28;20209;-38
2021/03/03 09:09:36;;;;;;;18.65;11.30;;;4.70;99.90;;;;;;5068872;28;20229;-39
2021/03/03 09:12:08;;;;;;;10.80;9.20;;;4.60;99.90;;;;;;5073696;28;20213;-39
2021/03/03 09:14:39;;;;;;;13.50;10.65;;;4.60;99.90;;;;;;5078786;28;20213;-39
2021/03/03 09:17:11;;;;;;;16.17;9.40;;;4.70;99.90;;;;;;5066451;28;20233;-39
2021/03/03 09:19:41;;;;;;;12.93;10.07;;;4.70;99.90;;;;;;5077168;28;20213;-40
2021/03/03 09:22:33;;;;;;;18.10;9.88;;;4.60;99.90;;;;;;5086549;28;20197;-39
2021/03/03 09:25:13;;;;;;;16.83;10.05;;;4.70;99.90;;;;;;5081773;28;20691;-40
2021/03/03 09:27:50;;;;;;;12.43;9.90;;;4.70;99.90;;;;;;5083788;28;20197;-40
2021/03/03 09:30:22;;;;;;;10.45;9.35;;;4.70;99.90;;;;;;5084393;28;20232;-39
2021/03/03 09:32:52;;;;;;;11.57;10.07;;;4.60;99.90;;;;;;5074946;28;20285;-39
2021/03/03 09:35:29;;;;;;;16.48;9.77;;;4.60;99.90;;;;;;5076823;28;20264;-39
2021/03/03 09:38:00;;;;;;;13.80;9.50;;;4.50;99.90;;;;;;5085679;28;20243;-39
2021/03/03 09:40:33;;;;;;;17.35;10.35;;;4.50;99.90;;;;;;5070764;28;20217;-39
2021/03/03 09:43:04;;;;;;;11.00;9.90;;;4.50;99.90;;;;;;5073839;28;20204;-39
2021/03/03 09:45:34;;;;;;;19.40;10.45;;;4.40;99.90;;;;;;5070971;28;20198;-39
2021/03/03 09:48:05;;;;;;;12.63;10.40;;;4.40;99.90;;;;;;5073680;28;20216;-39
2021/03/03 09:50:36;;;;;;;13.27;9.10;;;4.40;99.90;;;;;;5065324;28;20244;-39
2021/03/03 09:53:06;;;;;;;17.42;11.20;;;4.30;99.90;;;;;;5068912;28;20217;-39
2021/03/03 09:55:38;;;;;;;17.92;10.65;;;4.30;99.90;;;;;;5078834;28;20202;-39
2021/03/03 09:58:08;;;;;;;10.93;8.95;;;4.30;99.90;;;;;;5048210;28;20256;-40
2021/03/03 10:00:40;;;;;;;12.80;10.00;;;4.30;99.90;;;;;;5076926;28;20282;-39
2021/03/03 10:03:13;;;;;;;14.48;10.45;;;4.30;99.90;;;;;;5069171;28;20281;-39
2021/03/03 10:05:44;;;;;;;15.07;10.05;;;4.30;99.90;;;;;;5077564;28;20197;-39
2021/03/03 10:08:16;;;;;;;14.52;9.77;;;4.30;99.90;;;;;;5065919;28;20209;-39
2021/03/03 10:10:54;;;;;;;15.00;10.82;;;4.20;99.90;;;;;;5068263;28;20236;-39
2021/03/03 10:13:27;;;;;;;12.30;9.15;;;4.10;99.90;;;;;;5077180;28;20598;-39
2021/03/03 10:15:59;;;;;;;11.02;9.95;;;4.00;99.90;;;;;;5075110;28;20773;-38
2021/03/03 10:18:29;;;;;;;14.20;9.55;;;4.10;99.90;;;;;;5084404;28;20622;-39
2021/03/03 10:21:00;;;;;;;12.20;9.70;;;4.00;99.90;;;;;;5083642;28;20273;-39
2021/03/03 10:23:35;;;;;;;12.43;9.52;;;4.00;99.90;;;;;;5083989;28;20210;-38
2021/03/03 10:26:07;;;;;;;13.95;9.57;;;3.90;99.90;;;;;;5079405;28;20265;-40
2021/03/03 10:28:38;;;;;;;12.27;10.27;;;3.80;99.90;;;;;;5076837;28;20261;-39
2021/03/03 10:31:18;;;;;;;15.02;10.60;;;3.80;99.90;;;;;;5083107;28;20259;-39
2021/03/03 10:33:49;;;;;;;10.07;8.68;;;3.80;99.90;;;;;;5080601;28;20221;-39
2021/03/03 10:36:20;;;;;;;13.35;9.10;;;3.80;99.90;;;;;;5077058;28;20215;-39
2021/03/03 10:38:53;;;;;;;15.55;10.35;;;3.70;99.90;;;;;;5083813;28;20629;-38
2021/03/03 10:41:27;;;;;;;11.60;9.20;;;3.70;99.90;;;;;;5083752;28;20224;-38
2021/03/03 10:43:58;;;;;;;13.55;8.50;;;3.60;99.90;;;;;;5082279;28;20272;-39
2021/03/03 10:46:29;;;;;;;13.85;9.32;;;3.60;99.90;;;;;;5083345;28;20221;-38
2021/03/03 10:49:13;;;;;;;10.50;8.98;;;3.60;99.90;;;;;;5073699;28;20217;-38
2021/03/03 10:51:43;;;;;;;11.13;9.93;;;3.50;99.90;;;;;;5083943;28;20209;-38
2021/03/03 10:54:31;;;;;;;10.05;8.98;;;3.50;99.90;;;;;;5081983;28;20627;-38
2021/03/03 10:57:09;;;;;;;11.60;10.25;;;3.50;99.90;;;;;;5076696;28;20229;-38
2021/03/03 10:59:39;;;;;;;12.18;9.82;;;3.30;99.90;;;;;;5081978;28;20197;-36
2021/03/03 11:02:11;;;;;;;13.15;11.43;;;3.30;99.90;;;;;;5079636;28;20589;-38
2021/03/03 11:04:43;;;;;;;14.05;9.57;;;3.30;99.90;;;;;;5072137;28;20217;-37
2021/03/03 11:07:14;;;;;;;15.07;9.55;;;3.30;99.90;;;;;;5077499;28;20201;-40
2021/03/03 11:09:50;;;;;;;18.45;10.70;;;3.20;99.90;;;;;;5082016;28;20232;-40
2021/03/03 11:12:25;;;;;;;13.18;10.52;;;3.20;99.90;;;;;;5077180;28;20197;-38
2021/03/03 11:14:55;;;;;;;12.20;10.25;;;3.20;99.90;;;;;;5081904;28;20201;-36
2021/03/03 11:17:25;;;;;;;13.70;9.27;;;3.20;99.90;;;;;;5084085;28;20229;-38
2021/03/03 11:19:56;;;;;;;16.50;9.15;;;3.10;99.90;;;;;;5073239;28;20200;-38
2021/03/03 11:22:26;;;;;;;13.57;10.40;;;3.20;99.90;;;;;;5082903;28;20315;-38
2021/03/03 11:24:56;;;;;;;13.30;9.95;;;3.20;99.90;;;;;;5081098;28;20343;-39
2021/03/03 11:27:28;;;;;;;12.55;10.27;;;3.20;99.90;;;;;;5083836;28;20205;-39
2021/03/03 11:29:58;;;;;;;12.93;9.40;;;3.20;99.90;;;;;;5081967;28;20324;-38
2021/03/03 11:32:29;;;;;;;15.55;10.32;;;3.20;99.90;;;;;;5083266;28;20205;-39
2021/03/03 11:34:59;;;;;;;13.27;10.05;;;3.10;99.90;;;;;;5077966;28;20209;-39
2021/03/03 11:37:29;;;;;;;13.38;9.57;;;3.10;99.90;;;;;;5083618;28;20664;-39
2021/03/03 11:39:59;;;;;;;14.55;10.32;;;3.20;99.90;;;;;;5073435;28;20301;-39
2021/03/03 11:42:30;;;;;;;16.45;9.50;;;3.20;99.90;;;;;;5077913;28;20221;-39
2021/03/03 11:45:00;;;;;;;14.65;9.93;;;3.20;99.90;;;;;;5077888;28;20217;-39
2021/03/03 11:47:30;;;;;;;13.73;9.95;;;3.20;99.90;;;;;;5081304;28;20201;-38
2021/03/03 11:50:00;;;;;;;16.75;10.45;;;3.20;99.90;;;;;;5072837;28;20236;-39
2021/03/03 11:52:31;;;;;;;15.38;10.20;;;3.20;99.90;;;;;;5082968;28;20590;-39
2021/03/03 11:55:01;;;;;;;12.35;9.60;;;3.20;99.90;;;;;;5078768;28;20205;-39
2021/03/03 11:57:32;;;;;;;14.75;8.88;;;3.20;99.90;;;;;;5079551;28;20205;-39
2021/03/03 12:00:02;;;;;;;17.02;11.10;;;3.30;99.90;;;;;;5078915;28;20716;-39
2021/03/03 12:02:32;;;;;;;15.02;10.90;;;3.30;99.90;;;;;;5080678;28;20231;-40
2021/03/03 12:05:03;;;;;;;12.65;10.30;;;3.30;99.90;;;;;;5075085;28;20206;-39
2021/03/03 12:07:33;;;;;;;14.88;10.30;;;3.20;99.90;;;;;;5081178;28;20254;-39
2021/03/03 12:10:04;;;;;;;15.88;10.98;;;3.20;99.90;;;;;;5082081;28;20292;-39
2021/03/03 12:12:36;;;;;;;13.40;11.52;;;3.20;99.90;;;;;;5081690;28;20201;-39
2021/03/03 12:15:07;;;;;;;15.35;11.68;;;3.30;99.90;;;;;;5074301;28;20205;-39
2021/03/03 12:17:38;;;;;;;14.68;9.88;;;3.20;99.90;;;;;;5082698;28;20282;-39
2021/03/03 12:20:28;;;;;;;17.63;11.30;;;3.20;99.90;;;;;;5078787;28;20247;-39
2021/03/03 12:22:58;;;;;;;17.08;11.43;;;3.20;99.90;;;;;;5078638;28;20213;-39
2021/03/03 12:25:31;;;;;;;15.15;11.20;;;3.40;99.90;;;;;;5075898;28;20673;-39
2021/03/03 12:28:02;;;;;;;15.40;12.00;;;3.30;99.90;;;;;;5071027;28;20194;-39
2021/03/03 12:30:32;;;;;;;17.30;10.90;;;3.30;99.90;;;;;;5063782;28;20237;-39
2021/03/03 12:33:03;;;;;;;19.98;12.82;;;3.30;99.90;;;;;;5064107;28;20193;-39
2021/03/03 12:35:34;;;;;;;16.00;11.80;;;3.40;99.90;;;;;;5071254;28;20202;-39
2021/03/03 12:38:04;;;;;;;17.10;10.40;;;3.30;99.90;;;;;;5074225;28;20210;-39
2021/03/03 12:40:34;;;;;;;15.25;10.10;;;3.20;99.90;;;;;;5070305;28;20205;-38
2021/03/03 12:43:06;;;;;;;12.20;9.50;;;3.30;99.90;;;;;;5082433;28;20251;-38
2021/03/03 12:45:36;;;;;;;11.88;10.30;;;3.20;99.90;;;;;;5072580;28;20625;-38
2021/03/03 12:48:07;;;;;;;17.75;9.95;;;3.10;99.90;;;;;;5082005;28;20285;-39
2021/03/03 12:50:37;;;;;;;15.48;12.00;;;3.00;99.90;;;;;;5073606;28;20654;-38
2021/03/03 12:53:08;;;;;;;12.10;10.15;;;2.90;99.90;;;;;;5082953;28;20244;-39
2021/03/03 12:55:38;;;;;;;15.40;9.80;;;3.00;99.90;;;;;;5076805;28;20208;-38
2021/03/03 12:58:09;;;;;;;12.35;9.95;;;2.90;99.90;;;;;;5084749;28;20194;-39
2021/03/03 13:00:39;;;;;;;14.23;9.55;;;3.00;99.90;;;;;;5076960;28;20205;-39
2021/03/03 13:03:10;;;;;;;10.05;9.00;;;2.90;99.90;;;;;;5078209;28;20251;-38
2021/03/03 13:05:40;;;;;;;14.13;10.15;;;2.80;99.90;;;;;;5077408;28;20200;-39
2021/03/03 13:08:15;;;;;;;16.38;10.40;;;2.80;99.90;;;;;;5070742;28;20207;-38
2021/03/03 13:10:45;;;;;;;11.13;8.60;;;2.80;99.90;;;;;;5084367;28;20228;-38
2021/03/03 13:13:17;;;;;;;13.73;9.98;;;2.70;99.90;;;;;;5079671;28;20239;-38
2021/03/03 13:15:47;;;;;;;13.25;9.35;;;2.70;99.90;;;;;;5075473;28;20202;-38